Time;durP1;ratioP1;P1;durP2;ratioP2;P2;SDS_P1;SDS_P2;PMS_P1;PMS_P2;Temp;Humidity;BMP_temperature;BMP_pressure;BME280_temperature;BME280_humidity;BME280_pressure;Samples;Min_cycle;Max_cycle;Signal;HPM_P1;HPM_P2
2022/05/15 00:00:38;;;;;;;10.70;9.35;;;21.20;99.90;;;;;;5088677;28;20418;-85
2022/05/15 00:03:15;;;;;;;10.88;9.88;;;21.00;99.90;;;;;;5087353;28;20710;-85
2022/05/15 00:05:44;;;;;;;10.50;9.23;;;21.00;99.90;;;;;;5088262;28;20383;-82
2022/05/15 00:08:12;;;;;;;9.93;9.02;;;21.20;99.90;;;;;;5091693;28;20368;-82
2022/05/15 00:10:41;;;;;;;8.32;6.85;;;21.60;99.90;;;;;;5092049;28;20428;-84
2022/05/15 00:13:09;;;;;;;8.00;7.20;;;22.00;99.90;;;;;;5091973;28;20871;-84
2022/05/15 00:15:37;;;;;;;7.97;7.15;;;22.30;99.90;;;;;;5090314;28;20380;-80
2022/05/15 00:18:04;;;;;;;6.70;6.00;;;22.40;99.90;;;;;;5091759;28;20890;-83
2022/05/15 00:20:32;;;;;;;7.33;6.20;;;22.40;99.90;;;;;;5092002;28;20897;-85
2022/05/15 00:22:59;;;;;;;7.07;6.35;;;22.40;99.90;;;;;;5091943;28;20372;-81
2022/05/15 00:25:26;;;;;;;6.68;5.97;;;22.50;99.90;;;;;;5089612;28;20936;-80
2022/05/15 00:27:53;;;;;;;5.78;4.68;;;22.60;99.90;;;;;;5092213;28;20372;-80
2022/05/15 00:30:21;;;;;;;4.95;4.32;;;22.70;99.90;;;;;;5091033;28;20442;-81
2022/05/15 00:32:48;;;;;;;5.03;4.60;;;22.60;99.90;;;;;;5091611;28;20471;-80
2022/05/15 00:35:16;;;;;;;5.13;3.85;;;22.60;99.90;;;;;;5091243;28;20483;-82
2022/05/15 00:37:43;;;;;;;4.57;4.00;;;22.70;99.90;;;;;;5091223;28;20863;-83
2022/05/15 00:40:12;;;;;;;4.17;3.57;;;22.60;99.90;;;;;;5090965;28;20517;-80
2022/05/15 00:42:39;;;;;;;4.75;3.42;;;22.80;99.90;;;;;;5091112;28;20369;-81
2022/05/15 00:45:12;;;;;;;5.10;3.30;;;23.00;99.90;;;;;;5090952;28;20381;-83
2022/05/15 00:47:39;;;;;;;5.78;3.90;;;23.00;99.90;;;;;;5089738;28;20369;-83
2022/05/15 00:50:11;;;;;;;4.95;3.55;;;22.80;99.90;;;;;;5091146;28;20368;-85
2022/05/15 00:52:42;;;;;;;4.28;3.20;;;22.90;99.90;;;;;;5091148;28;20373;-83
2022/05/15 00:55:15;;;;;;;5.33;3.17;;;22.80;99.90;;;;;;5091308;28;20375;-80
2022/05/15 00:57:49;;;;;;;5.57;3.38;;;23.00;99.90;;;;;;5090925;28;20728;-81
2022/05/15 01:00:20;;;;;;;5.23;3.70;;;23.00;99.90;;;;;;5091010;28;20471;-80
2022/05/15 01:03:06;;;;;;;5.33;3.47;;;23.00;99.90;;;;;;5090693;28;20365;-82
2022/05/15 01:05:37;;;;;;;5.93;3.70;;;22.90;99.90;;;;;;5090834;28;20361;-83
2022/05/15 01:08:05;;;;;;;4.10;3.20;;;22.70;99.90;;;;;;5090818;28;20443;-86
2022/05/15 01:10:33;;;;;;;4.47;2.78;;;22.70;99.90;;;;;;5090857;28;20367;-84
2022/05/15 01:13:00;;;;;;;4.63;2.70;;;22.70;99.90;;;;;;5090964;28;20898;-83
2022/05/15 01:15:29;;;;;;;5.07;2.70;;;22.70;99.90;;;;;;5090708;28;20374;-85
2022/05/15 01:17:56;;;;;;;4.35;2.80;;;22.80;99.90;;;;;;5089859;28;20397;-83
2022/05/15 01:20:28;;;;;;;3.17;2.45;;;23.00;99.90;;;;;;5090674;28;20512;-85
2022/05/15 01:22:55;;;;;;;4.18;2.60;;;23.10;99.90;;;;;;5090933;28;20786;-84
2022/05/15 01:25:25;;;;;;;3.88;2.65;;;23.00;99.90;;;;;;5090595;28;20430;-88
2022/05/15 01:28:07;;;;;;;5.07;2.70;;;23.10;99.90;;;;;;5090421;28;20879;-83
2022/05/15 01:30:38;;;;;;;7.13;3.20;;;23.60;99.90;;;;;;5090453;28;20402;-83
2022/05/15 01:33:06;;;;;;;5.20;3.80;;;24.20;99.90;;;;;;5090698;28;20376;-84
2022/05/15 01:35:33;;;;;;;7.43;4.30;;;24.50;99.90;;;;;;5090443;28;20368;-83
2022/05/15 01:38:03;;;;;;;9.77;5.50;;;24.60;99.90;;;;;;5090281;28;20919;-84
2022/05/15 01:40:30;;;;;;;8.60;4.88;;;24.40;99.90;;;;;;5089925;28;20520;-84
2022/05/15 01:43:02;;;;;;;9.15;4.80;;;24.30;99.90;;;;;;5089383;28;20480;-87
2022/05/15 01:45:29;;;;;;;9.20;5.20;;;24.50;99.90;;;;;;5090411;28;20373;-82
2022/05/15 01:47:57;;;;;;;9.45;4.65;;;24.60;99.90;;;;;;5090069;28;20381;-82
2022/05/15 01:50:25;;;;;;;5.93;3.67;;;24.70;99.90;;;;;;5089774;28;20368;-84
2022/05/15 01:52:52;;;;;;;5.25;3.25;;;24.80;99.90;;;;;;5089949;28;20425;-82
2022/05/15 01:55:19;;;;;;;4.90;2.63;;;24.80;99.90;;;;;;5090028;28;20379;-86
2022/05/15 01:57:46;;;;;;;3.75;2.40;;;24.80;99.90;;;;;;5090687;28;20430;-81
2022/05/15 02:00:19;;;;;;;3.20;2.30;;;24.70;99.90;;;;;;5089865;28;20399;-81
2022/05/15 02:02:47;;;;;;;5.10;2.60;;;24.70;99.90;;;;;;5090418;28;20373;-85
2022/05/15 02:05:15;;;;;;;3.28;2.05;;;24.80;99.90;;;;;;5087996;28;20382;-85
2022/05/15 02:07:42;;;;;;;3.33;2.00;;;24.90;99.90;;;;;;5089604;28;20375;-86
2022/05/15 02:10:09;;;;;;;3.20;2.10;;;24.90;99.90;;;;;;5090711;28;20723;-88
2022/05/15 02:12:38;;;;;;;2.70;1.70;;;24.70;99.90;;;;;;5089778;28;20380;-85
2022/05/15 02:15:07;;;;;;;2.05;1.75;;;24.50;99.90;;;;;;5089677;28;20388;-87
2022/05/15 02:17:35;;;;;;;2.67;1.70;;;24.50;99.90;;;;;;5089332;28;20860;-86
2022/05/15 02:20:02;;;;;;;2.53;1.60;;;24.40;99.90;;;;;;5089246;28;20415;-87
2022/05/15 02:22:29;;;;;;;2.50;1.67;;;23.90;99.90;;;;;;5087968;28;20868;-87
2022/05/15 02:24:56;;;;;;;2.50;1.75;;;23.70;99.90;;;;;;5089286;28;20380;-86
2022/05/15 02:27:23;;;;;;;2.53;2.00;;;23.60;99.90;;;;;;5089249;28;20549;-86
2022/05/15 02:29:50;;;;;;;2.83;2.00;;;23.50;99.90;;;;;;5088964;28;20397;-86
2022/05/15 02:32:17;;;;;;;3.70;2.28;;;23.60;99.90;;;;;;5089455;28;20423;-90
2022/05/15 02:34:44;;;;;;;3.25;2.63;;;23.60;99.90;;;;;;5088972;28;20446;-87
2022/05/15 02:37:11;;;;;;;4.13;2.92;;;23.70;99.90;;;;;;5090064;28;20379;-85
2022/05/15 02:39:38;;;;;;;4.63;2.90;;;23.70;99.90;;;;;;5088784;28;20396;-87
2022/05/15 02:42:05;;;;;;;6.93;3.10;;;23.70;99.90;;;;;;5089398;28;20440;-88
2022/05/15 02:44:32;;;;;;;4.00;2.88;;;23.80;99.90;;;;;;5089286;28;20384;-83
2022/05/15 02:46:59;;;;;;;3.88;2.88;;;23.90;99.90;;;;;;5089099;28;20404;-88
2022/05/15 02:52:12;;;;;;;5.32;2.95;;;23.90;99.90;;;;;;5089227;28;20806;-88
2022/05/15 02:54:39;;;;;;;4.18;2.80;;;23.90;99.90;;;;;;5089131;28;20372;-85
2022/05/15 02:57:11;;;;;;;3.92;2.83;;;23.80;99.90;;;;;;5088868;28;20404;-87
2022/05/15 02:59:38;;;;;;;4.05;2.30;;;23.90;99.90;;;;;;5089191;28;20388;-87
2022/05/15 03:02:05;;;;;;;3.70;2.85;;;23.80;99.90;;;;;;5090445;28;20404;-83
2022/05/15 03:04:33;;;;;;;3.38;2.60;;;23.90;99.90;;;;;;5097096;28;20365;-84
2022/05/15 03:07:00;;;;;;;4.97;2.47;;;23.90;99.90;;;;;;5100599;28;20384;-86
2022/05/15 03:09:27;;;;;;;5.75;2.88;;;24.00;99.90;;;;;;5093414;28;20368;-84
2022/05/15 03:11:54;;;;;;;3.20;2.90;;;24.00;99.90;;;;;;5094140;28;20383;-87
2022/05/15 03:14:21;;;;;;;3.70;3.10;;;23.90;99.90;;;;;;5089205;28;20368;-90
2022/05/15 03:16:47;;;;;;;5.50;3.10;;;23.80;99.90;;;;;;5089524;28;20376;-90
2022/05/15 03:19:15;;;;;;;4.10;2.97;;;23.80;99.90;;;;;;5088937;28;20408;-88
2022/05/15 03:21:42;;;;;;;5.00;2.90;;;23.90;99.90;;;;;;5089249;28;20766;-88
2022/05/15 03:24:11;;;;;;;3.20;2.73;;;23.90;99.90;;;;;;5088912;28;20882;-88
2022/05/15 03:26:41;;;;;;;3.65;2.60;;;24.00;99.90;;;;;;5089237;28;20725;-91
2022/05/15 03:29:10;;;;;;;4.18;2.45;;;24.00;99.90;;;;;;5090392;28;20716;-84
2022/05/15 03:31:39;;;;;;;4.55;2.85;;;24.10;99.90;;;;;;5088379;28;20505;-88
2022/05/15 03:34:11;;;;;;;4.22;2.78;;;24.00;99.90;;;;;;5090139;28;20518;-89
2022/05/15 03:36:40;;;;;;;2.85;2.50;;;23.90;99.90;;;;;;5089307;28;20411;-90
2022/05/15 03:39:08;;;;;;;3.90;2.60;;;24.00;99.90;;;;;;5088502;28;20390;-89
2022/05/15 03:41:36;;;;;;;2.45;2.25;;;24.10;99.90;;;;;;5088861;28;20376;-83
2022/05/15 03:44:06;;;;;;;4.03;2.50;;;24.00;99.90;;;;;;5093992;28;20372;-89
2022/05/15 03:46:34;;;;;;;4.10;2.83;;;23.80;99.90;;;;;;5093416;28;20850;-90
2022/05/15 03:49:01;;;;;;;5.05;2.53;;;23.70;99.90;;;;;;5093018;28;20461;-91
2022/05/15 03:51:29;;;;;;;3.38;2.80;;;23.50;99.90;;;;;;5092948;28;20372;-91
2022/05/15 03:53:56;;;;;;;8.00;2.63;;;23.40;99.90;;;;;;5093285;28;20375;-87
2022/05/15 03:59:10;;;;;;;6.07;4.85;;;23.60;99.90;;;;;;5092262;28;20449;-85
2022/05/15 04:01:37;;;;;;;3.10;2.60;;;23.70;99.90;;;;;;5092465;28;20417;-92
2022/05/15 04:04:05;;;;;;;5.32;2.40;;;23.90;99.90;;;;;;5092191;28;20455;-91
2022/05/15 04:06:32;;;;;;;3.85;2.50;;;24.00;99.90;;;;;;5091063;28;20381;-91
2022/05/15 04:08:59;;;;;;;4.25;2.67;;;24.00;99.90;;;;;;5091996;28;20458;-89
2022/05/15 04:11:26;;;;;;;3.67;2.65;;;24.00;99.90;;;;;;5092013;28;20411;-88
2022/05/15 04:13:52;;;;;;;2.67;2.30;;;23.90;99.90;;;;;;5092164;28;20379;-88
2022/05/15 04:16:19;;;;;;;3.25;2.50;;;23.90;99.90;;;;;;5092445;28;20843;-91
2022/05/15 04:18:46;;;;;;;3.85;2.40;;;23.80;99.90;;;;;;5092004;28;20434;-91
2022/05/15 04:21:13;;;;;;;3.13;2.40;;;23.80;99.90;;;;;;5092078;28;20380;-89
2022/05/15 04:23:41;;;;;;;4.30;2.50;;;23.80;99.90;;;;;;5092201;28;20369;-91
2022/05/15 04:26:08;;;;;;;5.07;3.30;;;23.80;99.90;;;;;;5092008;28;20469;-89
2022/05/15 04:28:35;;;;;;;4.07;2.70;;;23.60;99.90;;;;;;5092359;28;20364;-86
2022/05/15 04:31:03;;;;;;;4.00;2.75;;;23.60;99.90;;;;;;5092083;28;20412;-91
2022/05/15 04:33:34;;;;;;;5.30;3.20;;;23.50;99.90;;;;;;5092588;28;20368;-88
2022/05/15 04:36:01;;;;;;;3.75;2.65;;;23.40;99.90;;;;;;5094426;28;20368;-94
2022/05/15 04:38:28;;;;;;;5.17;2.77;;;23.30;99.90;;;;;;5093725;28;20379;-93
2022/05/15 04:40:55;;;;;;;3.47;2.53;;;23.20;99.90;;;;;;5092757;28;20412;-92
2022/05/15 04:43:22;;;;;;;3.28;2.47;;;23.10;99.90;;;;;;5092711;28;20378;-93
2022/05/15 04:45:49;;;;;;;5.17;2.80;;;22.90;99.90;;;;;;5094050;28;20408;-91
2022/05/15 04:48:16;;;;;;;3.13;2.50;;;22.80;99.90;;;;;;5093180;28;20814;-94
2022/05/15 04:50:43;;;;;;;5.30;3.22;;;22.60;99.90;;;;;;5092879;28;20464;-92
2022/05/15 04:53:10;;;;;;;4.10;3.00;;;22.60;99.90;;;;;;5092674;28;20372;-90
2022/05/15 04:55:38;;;;;;;3.70;2.85;;;22.50;99.90;;;;;;5093958;28;20418;-95
2022/05/15 04:58:05;;;;;;;6.95;3.50;;;22.40;99.90;;;;;;5092394;28;20911;-94
2022/05/15 05:00:32;;;;;;;4.65;3.40;;;22.40;99.90;;;;;;5093069;28;20396;-94
2022/05/15 05:02:59;;;;;;;5.70;3.43;;;22.30;99.90;;;;;;5094969;28;20470;-94
2022/05/15 05:05:26;;;;;;;7.55;3.42;;;22.30;99.90;;;;;;5093220;28;20932;-86
2022/05/15 05:07:53;;;;;;;5.50;3.80;;;22.20;99.90;;;;;;5092000;28;20517;-87
2022/05/15 05:10:20;;;;;;;6.45;3.80;;;22.20;99.90;;;;;;5091847;28;20384;-85
2022/05/15 05:12:47;;;;;;;6.45;3.70;;;22.10;99.90;;;;;;5090857;28;20412;-83
2022/05/15 05:15:14;;;;;;;7.40;3.92;;;22.10;99.90;;;;;;5092504;28;20376;-85
2022/05/15 05:17:42;;;;;;;7.35;5.50;;;22.00;99.90;;;;;;5096098;28;20737;-88
2022/05/15 05:20:12;;;;;;;15.63;7.57;;;22.00;99.90;;;;;;5094912;28;20407;-87
2022/05/15 05:22:39;;;;;;;6.70;5.00;;;21.90;99.90;;;;;;5091957;28;20365;-91
2022/05/15 05:25:07;;;;;;;5.05;3.80;;;21.90;99.90;;;;;;5092859;28;20381;-90
2022/05/15 05:27:36;;;;;;;6.73;4.03;;;21.90;99.90;;;;;;5092702;28;20372;-91
2022/05/15 05:30:04;;;;;;;5.57;3.83;;;21.80;99.90;;;;;;5091491;28;20384;-88
2022/05/15 05:32:31;;;;;;;6.32;4.10;;;21.80;99.90;;;;;;5090986;28;20376;-88
2022/05/15 05:34:58;;;;;;;7.60;5.00;;;21.80;99.90;;;;;;5091862;28;20459;-88
2022/05/15 05:37:25;;;;;;;5.60;4.60;;;21.80;99.90;;;;;;5090969;28;20383;-86
2022/05/15 05:39:52;;;;;;;6.97;4.70;;;21.70;99.90;;;;;;5090656;28;20423;-88
2022/05/15 05:42:19;;;;;;;8.00;4.85;;;21.70;99.90;;;;;;5092139;28;20384;-89
2022/05/15 05:44:46;;;;;;;7.00;4.93;;;21.70;99.90;;;;;;5092650;28;20415;-90
2022/05/15 05:47:13;;;;;;;5.77;4.60;;;21.70;99.90;;;;;;5090919;28;20383;-90
2022/05/15 05:49:43;;;;;;;5.38;4.88;;;21.70;99.90;;;;;;5091220;28;20371;-88
2022/05/15 05:52:10;;;;;;;6.65;5.13;;;21.70;99.90;;;;;;5090499;28;20722;-89
2022/05/15 05:54:36;;;;;;;6.80;5.10;;;21.60;99.90;;;;;;5090099;28;20437;-85
2022/05/15 05:57:04;;;;;;;6.65;5.40;;;21.50;99.90;;;;;;5089848;28;20848;-89
2022/05/15 05:59:31;;;;;;;7.30;5.33;;;21.50;99.90;;;;;;5089958;28;20423;-83
2022/05/15 06:01:58;;;;;;;9.00;5.38;;;21.50;99.90;;;;;;5089662;28;20852;-86
2022/05/15 06:04:41;;;;;;;6.18;5.07;;;21.50;99.90;;;;;;5089141;28;20432;-84
2022/05/15 06:07:20;;;;;;;6.82;4.80;;;21.40;99.90;;;;;;5089769;28;20417;-85
2022/05/15 06:09:49;;;;;;;5.90;5.30;;;21.50;99.90;;;;;;5089858;28;20507;-85
2022/05/15 06:12:19;;;;;;;5.68;5.00;;;21.60;99.90;;;;;;5088556;28;20364;-86
2022/05/15 06:14:46;;;;;;;5.95;5.32;;;21.50;99.90;;;;;;5090722;28;20369;-86
2022/05/15 06:17:13;;;;;;;7.50;4.80;;;21.40;99.90;;;;;;5090693;28;20376;-88
2022/05/15 06:19:42;;;;;;;8.00;5.00;;;21.40;99.90;;;;;;5090496;28;20862;-86
2022/05/15 06:22:09;;;;;;;6.90;4.60;;;21.30;99.90;;;;;;5094991;28;20815;-86
2022/05/15 06:24:36;;;;;;;6.65;4.20;;;21.20;99.90;;;;;;5090356;28;20836;-86
2022/05/15 06:27:04;;;;;;;6.00;3.95;;;21.20;99.90;;;;;;5090644;28;20561;-89
2022/05/15 06:29:31;;;;;;;7.88;3.78;;;21.20;99.90;;;;;;5088991;28;20429;-86
2022/05/15 06:31:59;;;;;;;5.43;4.32;;;21.20;99.90;;;;;;5090039;28;20467;-85
2022/05/15 06:34:27;;;;;;;5.78;3.90;;;21.20;99.90;;;;;;5088942;28;20403;-84
2022/05/15 06:36:53;;;;;;;6.43;4.00;;;21.20;99.90;;;;;;5088903;28;20885;-88
2022/05/15 06:39:21;;;;;;;7.05;3.80;;;21.10;99.90;;;;;;5089222;28;20770;-84
2022/05/15 06:41:50;;;;;;;6.90;3.70;;;21.10;99.90;;;;;;5088876;28;20427;-86
2022/05/15 06:44:18;;;;;;;5.35;3.70;;;21.10;99.90;;;;;;5089113;28;20377;-85
2022/05/15 06:46:46;;;;;;;5.65;4.10;;;21.00;99.90;;;;;;5088821;28;20368;-82
2022/05/15 06:49:14;;;;;;;6.57;4.20;;;21.00;99.90;;;;;;5088734;28;20379;-86
2022/05/15 06:51:43;;;;;;;6.72;4.82;;;21.00;99.90;;;;;;5088761;28;20375;-84
2022/05/15 06:54:10;;;;;;;6.90;4.15;;;20.90;99.90;;;;;;5088613;28;20770;-81
2022/05/15 06:59:24;;;;;;;5.30;3.50;;;20.80;99.90;;;;;;5088961;28;20500;-85
2022/05/15 07:01:51;;;;;;;5.47;3.50;;;20.80;99.90;;;;;;5088610;28;20380;-84
2022/05/15 07:04:18;;;;;;;6.18;3.10;;;20.80;99.90;;;;;;5088885;28;20445;-82
2022/05/15 07:06:45;;;;;;;6.60;3.47;;;20.80;99.90;;;;;;5088553;28;20383;-83
2022/05/15 07:09:12;;;;;;;4.28;3.38;;;20.80;99.90;;;;;;5088569;28;20377;-81
2022/05/15 07:11:40;;;;;;;6.30;3.47;;;20.80;99.90;;;;;;5088579;28;20446;-84
2022/05/15 07:14:08;;;;;;;4.72;3.10;;;20.70;99.90;;;;;;5088648;28;20455;-81
2022/05/15 07:16:36;;;;;;;4.85;3.42;;;20.70;99.90;;;;;;5087501;28;20391;-80
2022/05/15 07:19:03;;;;;;;3.88;3.55;;;20.80;99.90;;;;;;5086993;28;20897;-80
2022/05/15 07:21:30;;;;;;;3.63;3.33;;;20.80;99.90;;;;;;5088479;28;20400;-81
2022/05/15 07:23:57;;;;;;;6.33;3.47;;;20.80;99.90;;;;;;5088343;28;20767;-82
2022/05/15 07:26:24;;;;;;;3.47;3.17;;;20.60;99.90;;;;;;5088363;28;20743;-80
2022/05/15 07:28:51;;;;;;;4.85;3.10;;;20.60;99.90;;;;;;5088191;28;20467;-81
2022/05/15 07:31:19;;;;;;;5.33;3.30;;;20.70;99.90;;;;;;5087412;28;21017;-78
2022/05/15 07:33:49;;;;;;;3.85;3.40;;;20.70;99.90;;;;;;5088411;28;20395;-85
2022/05/15 07:36:16;;;;;;;6.82;3.45;;;20.60;99.90;;;;;;5088213;28;20374;-79
2022/05/15 07:38:43;;;;;;;4.25;3.33;;;20.60;99.90;;;;;;5088300;28;20376;-82
2022/05/15 07:41:11;;;;;;;4.27;3.57;;;20.60;99.90;;;;;;5088622;28;20384;-83
2022/05/15 07:43:39;;;;;;;3.85;3.45;;;20.60;99.90;;;;;;5088383;28;20396;-81
2022/05/15 07:46:06;;;;;;;5.47;3.15;;;20.70;99.90;;;;;;5088229;28;20380;-84
2022/05/15 07:48:33;;;;;;;6.00;3.27;;;20.60;99.90;;;;;;5088410;28;20379;-80
2022/05/15 07:51:00;;;;;;;5.23;3.20;;;20.60;99.90;;;;;;5088228;28;20818;-77
2022/05/15 07:53:27;;;;;;;4.40;3.20;;;20.70;99.90;;;;;;5088183;28;20372;-85
2022/05/15 07:56:09;;;;;;;6.00;3.60;;;20.60;99.90;;;;;;5088223;28;20455;-84
2022/05/15 07:58:37;;;;;;;6.17;3.97;;;20.60;99.90;;;;;;5088249;28;20395;-81
2022/05/15 08:01:05;;;;;;;5.95;3.55;;;20.40;99.90;;;;;;5088053;28;20411;-80
2022/05/15 08:03:42;;;;;;;5.00;3.38;;;20.40;99.90;;;;;;5088107;28;20372;-82
2022/05/15 08:08:59;;;;;;;4.72;4.28;;;20.40;99.90;;;;;;5088135;28;20451;-80
2022/05/15 08:11:28;;;;;;;5.55;3.80;;;20.30;99.90;;;;;;5088002;28;20377;-79
2022/05/15 08:13:56;;;;;;;4.55;4.03;;;20.20;99.90;;;;;;5087804;28;20441;-79
2022/05/15 08:16:24;;;;;;;6.32;4.10;;;20.20;99.90;;;;;;5087879;28;20382;-77
2022/05/15 08:24:22;;;;;;;7.03;5.25;;;20.20;99.90;;;;;;5088400;28;20406;-82
2022/05/15 08:26:52;;;;;;;6.30;5.00;;;20.10;99.90;;;;;;5087960;28;20792;-78
2022/05/15 08:29:20;;;;;;;5.65;4.22;;;20.00;99.90;;;;;;5095665;28;20381;-81
2022/05/15 08:31:47;;;;;;;6.55;4.30;;;20.00;99.90;;;;;;5092375;28;20399;-79
2022/05/15 08:37:37;;;;;;;5.57;4.70;;;20.00;99.90;;;;;;5091671;28;20867;-82
2022/05/15 08:40:04;;;;;;;8.32;6.10;;;19.90;99.90;;;;;;5092068;28;20395;-81
2022/05/15 08:42:56;;;;;;;6.00;5.38;;;19.90;99.90;;;;;;5093363;28;20380;-81
2022/05/15 08:45:31;;;;;;;9.52;6.30;;;19.80;99.90;;;;;;5089868;28;20740;-83
2022/05/15 08:48:06;;;;;;;6.77;5.87;;;19.80;99.90;;;;;;5092432;28;20361;-86
2022/05/15 08:50:44;;;;;;;6.85;5.28;;;19.70;99.90;;;;;;5092266;28;20459;-84
2022/05/15 08:53:36;;;;;;;6.03;4.60;;;19.60;99.90;;;;;;5091913;28;20448;-82
2022/05/15 08:56:09;;;;;;;6.70;5.30;;;19.60;99.90;;;;;;5091143;28;20452;-83
2022/05/15 08:58:52;;;;;;;5.67;5.17;;;19.60;99.90;;;;;;5091118;28;20705;-80
2022/05/15 09:01:28;;;;;;;6.35;5.65;;;19.50;99.90;;;;;;5090903;28;20800;-84
2022/05/15 09:03:56;;;;;;;6.65;5.80;;;19.60;99.90;;;;;;5090837;28;20360;-84
2022/05/15 09:06:42;;;;;;;8.87;7.33;;;19.60;99.90;;;;;;5090915;28;20434;-84
2022/05/15 09:09:24;;;;;;;9.80;8.40;;;19.60;99.90;;;;;;5091020;28;20368;-81
2022/05/15 09:12:01;;;;;;;10.57;8.37;;;19.60;99.90;;;;;;5091255;28;20370;-80
2022/05/15 09:14:38;;;;;;;11.43;8.48;;;19.50;99.90;;;;;;5090698;28;20376;-88
2022/05/15 09:17:37;;;;;;;9.03;8.10;;;19.40;99.90;;;;;;5091277;28;20425;-81
2022/05/15 09:20:36;;;;;;;8.15;7.03;;;19.30;99.90;;;;;;5048166;28;20430;-86
2022/05/15 09:23:36;;;;;;;8.75;6.70;;;19.20;99.90;;;;;;5008756;28;20379;-82
2022/05/15 09:26:17;;;;;;;9.03;6.37;;;19.20;99.90;;;;;;5009616;28;20383;-83
2022/05/15 09:29:04;;;;;;;7.60;5.90;;;19.10;99.90;;;;;;5011477;28;20759;-84
2022/05/15 09:31:44;;;;;;;8.40;7.20;;;19.10;99.90;;;;;;5012409;28;20395;-79
2022/05/15 09:34:35;;;;;;;7.57;6.77;;;19.00;99.90;;;;;;5011063;28;20427;-81
2022/05/15 09:40:02;;;;;;;8.30;7.28;;;18.90;99.90;;;;;;5007798;28;20481;-86
2022/05/15 09:45:17;;;;;;;9.50;7.97;;;18.80;99.90;;;;;;5008586;28;20383;-82
2022/05/15 09:48:02;;;;;;;7.63;6.75;;;18.80;99.90;;;;;;5008055;28;20383;-85
2022/05/15 09:50:47;;;;;;;9.52;7.10;;;18.70;99.90;;;;;;5008216;28;20375;-83
2022/05/15 09:53:46;;;;;;;8.07;6.63;;;18.70;99.90;;;;;;5007546;28;20398;-82
2022/05/15 09:56:30;;;;;;;10.53;8.27;;;18.60;99.90;;;;;;4939824;28;20553;-86
2022/05/15 09:59:05;;;;;;;11.18;9.43;;;18.60;99.90;;;;;;4980338;28;20384;-85
2022/05/15 10:01:39;;;;;;;11.43;10.30;;;18.60;99.90;;;;;;5008208;28;20388;-84
2022/05/15 10:04:19;;;;;;;11.10;9.55;;;18.60;99.90;;;;;;5007772;28;20374;-83
2022/05/15 10:07:00;;;;;;;10.27;8.65;;;18.50;99.90;;;;;;5007978;28;20379;-82
2022/05/15 10:09:36;;;;;;;11.95;9.25;;;18.50;99.90;;;;;;5007610;28;20757;-83
2022/05/15 10:12:07;;;;;;;9.52;8.45;;;18.40;99.90;;;;;;5007710;28;20491;-87
2022/05/15 10:14:51;;;;;;;11.05;9.60;;;18.40;99.90;;;;;;5008151;28;20557;-84
2022/05/15 10:17:21;;;;;;;9.55;8.65;;;18.30;99.90;;;;;;5007608;28;20406;-86
2022/05/15 10:20:07;;;;;;;9.80;8.27;;;18.30;99.90;;;;;;5008126;28;20883;-80
2022/05/15 10:22:42;;;;;;;9.88;7.97;;;18.30;99.90;;;;;;5007951;28;20434;-83
2022/05/15 10:25:24;;;;;;;9.13;8.17;;;18.20;99.90;;;;;;5007867;28;20397;-88
2022/05/15 10:28:13;;;;;;;11.38;8.80;;;18.10;99.90;;;;;;5009689;28;20368;-81
2022/05/15 10:31:08;;;;;;;11.45;9.27;;;18.10;99.90;;;;;;5010354;28;20439;-86
2022/05/15 10:40:41;;;;;;;19.40;14.90;;;17.90;99.90;;;;;;5047141;28;20426;-85
2022/05/15 10:43:17;;;;;;;14.50;12.50;;;17.90;99.90;;;;;;5046919;28;20383;-82
2022/05/15 10:45:48;;;;;;;16.55;13.82;;;17.90;99.90;;;;;;5030359;28;20497;-83
2022/05/15 10:48:34;;;;;;;12.93;11.67;;;17.80;99.90;;;;;;5046424;28;20418;-87
2022/05/15 10:51:19;;;;;;;13.15;11.88;;;17.80;99.90;;;;;;5046980;28;20386;-84
2022/05/15 10:57:21;;;;;;;17.60;15.90;;;17.70;99.90;;;;;;4967906;28;20470;-84
2022/05/15 11:00:00;;;;;;;17.48;15.50;;;17.60;99.90;;;;;;4968050;28;20414;-82
2022/05/15 11:02:42;;;;;;;18.50;15.02;;;17.70;99.90;;;;;;4968334;28;20403;-84
2022/05/15 11:05:30;;;;;;;17.20;14.82;;;17.60;99.90;;;;;;4969554;28;20405;-85
2022/05/15 11:08:20;;;;;;;14.82;13.32;;;17.50;99.90;;;;;;4967891;28;20381;-83
2022/05/15 11:11:09;;;;;;;18.38;16.13;;;17.50;99.90;;;;;;4990492;28;20855;-83
2022/05/15 11:13:59;;;;;;;17.63;15.70;;;17.40;99.90;;;;;;5007247;28;20375;-82
2022/05/15 11:16:34;;;;;;;20.33;18.13;;;17.40;99.90;;;;;;5007114;28;20375;-83
2022/05/15 11:19:22;;;;;;;22.20;17.00;;;17.50;99.90;;;;;;5007415;28;20376;-85
2022/05/15 11:21:55;;;;;;;30.65;25.20;;;17.50;99.90;;;;;;4990453;28;20395;-83
2022/05/15 11:24:49;;;;;;;30.60;25.52;;;17.50;99.90;;;;;;5006934;28;20808;-82
2022/05/15 11:27:25;;;;;;;26.17;21.95;;;17.50;99.90;;;;;;5026408;28;20365;-82
2022/05/15 11:29:55;;;;;;;28.00;22.45;;;17.50;99.90;;;;;;5088988;28;20394;-83
2022/05/15 11:32:31;;;;;;;23.00;19.60;;;17.40;99.90;;;;;;5088459;28;20381;-82
2022/05/15 11:35:05;;;;;;;18.73;16.80;;;17.30;99.90;;;;;;5088361;28;20387;-84
2022/05/15 11:37:38;;;;;;;19.75;15.90;;;17.20;99.90;;;;;;5088450;28;20379;-81
2022/05/15 11:40:29;;;;;;;19.15;17.10;;;17.10;99.90;;;;;;5088307;28;20800;-85
2022/05/15 11:42:56;;;;;;;18.67;16.00;;;17.10;99.90;;;;;;5088362;28;20376;-82
2022/05/15 11:45:33;;;;;;;21.27;16.30;;;17.00;99.90;;;;;;5088662;28;20415;-83
2022/05/15 11:48:19;;;;;;;18.15;16.27;;;16.90;99.90;;;;;;5088720;28;20447;-84
2022/05/15 11:50:59;;;;;;;16.77;15.07;;;16.90;99.90;;;;;;5088421;28;20357;-84
2022/05/15 11:53:46;;;;;;;17.13;15.27;;;17.00;99.90;;;;;;5088556;28;20425;-82
2022/05/15 11:56:51;;;;;;;14.38;12.02;;;17.00;99.90;;;;;;5088361;28;20859;-83
2022/05/15 11:59:28;;;;;;;18.20;15.68;;;17.10;99.90;;;;;;5088899;28;20883;-83
2022/05/15 12:02:01;;;;;;;17.83;15.93;;;17.30;99.90;;;;;;5088394;28;20376;-84
2022/05/15 12:04:37;;;;;;;22.40;18.00;;;17.20;99.90;;;;;;5092277;28;20356;-81
2022/05/15 12:07:04;;;;;;;19.33;14.57;;;17.10;99.90;;;;;;5092152;28;20376;-85
2022/05/15 12:09:40;;;;;;;17.25;15.40;;;17.00;99.90;;;;;;5091954;28;20451;-82
2022/05/15 12:12:27;;;;;;;17.05;14.25;;;16.80;99.90;;;;;;5092327;28;20377;-81
2022/05/15 12:15:21;;;;;;;16.07;14.30;;;16.60;99.90;;;;;;5091922;28;20364;-83
2022/05/15 12:17:50;;;;;;;17.55;15.65;;;16.60;99.90;;;;;;5091704;28;20377;-80
2022/05/15 12:20:22;;;;;;;20.80;15.45;;;16.60;99.90;;;;;;5092259;28;20400;-81
2022/05/15 12:22:57;;;;;;;21.67;16.35;;;16.50;99.90;;;;;;5092283;28;20368;-83
2022/05/15 12:25:31;;;;;;;20.50;16.83;;;16.50;99.90;;;;;;5091660;28;20356;-80
2022/05/15 12:28:51;;;;;;;20.52;17.27;;;16.40;99.90;;;;;;5091835;28;20380;-81
2022/05/15 12:31:23;;;;;;;21.02;16.45;;;16.40;99.90;;;;;;5091412;28;20384;-81
2022/05/15 12:33:51;;;;;;;20.67;17.88;;;16.30;99.90;;;;;;5091640;28;20364;-83
2022/05/15 12:36:31;;;;;;;19.10;16.98;;;16.30;99.90;;;;;;5091532;28;20921;-81
2022/05/15 12:39:00;;;;;;;21.35;17.35;;;16.20;99.90;;;;;;5090101;28;20399;-81
2022/05/15 12:41:36;;;;;;;15.73;14.02;;;16.30;99.90;;;;;;5091508;28;20799;-83
2022/05/15 12:44:08;;;;;;;19.48;16.80;;;16.10;99.90;;;;;;5091169;28;20364;-82
2022/05/15 12:46:38;;;;;;;19.07;16.97;;;16.10;99.90;;;;;;5091015;28;20388;-81
2022/05/15 12:49:07;;;;;;;16.33;14.57;;;16.10;99.90;;;;;;5091053;28;20447;-82
2022/05/15 12:51:38;;;;;;;20.40;16.65;;;16.00;99.90;;;;;;5091063;28;20372;-82
2022/05/15 12:54:23;;;;;;;16.48;14.77;;;16.00;99.90;;;;;;5091034;28;20380;-82
2022/05/15 12:57:02;;;;;;;16.70;15.00;;;16.00;99.90;;;;;;5091022;28;20376;-81
2022/05/15 12:59:34;;;;;;;18.85;14.98;;;16.00;99.90;;;;;;5091049;28;20420;-83
2022/05/15 13:02:15;;;;;;;15.67;14.10;;;16.00;99.90;;;;;;5091219;28;20427;-82
2022/05/15 13:04:51;;;;;;;16.48;14.18;;;15.90;99.90;;;;;;5091741;28;20361;-82
2022/05/15 13:07:27;;;;;;;15.73;14.00;;;15.80;99.90;;;;;;5091890;28;20380;-81
2022/05/15 13:10:00;;;;;;;14.27;12.73;;;15.80;99.90;;;;;;5092662;28;20436;-82
2022/05/15 13:12:27;;;;;;;13.52;12.30;;;15.80;99.90;;;;;;5092623;28;20376;-81
2022/05/15 13:14:55;;;;;;;14.70;12.82;;;15.70;99.90;;;;;;5090953;28;20392;-81
2022/05/15 13:17:36;;;;;;;15.07;12.60;;;15.70;99.90;;;;;;5090999;28;20364;-80
2022/05/15 13:20:16;;;;;;;16.23;12.73;;;15.60;99.90;;;;;;5090693;28;20392;-81
2022/05/15 13:22:44;;;;;;;14.40;12.90;;;15.60;99.90;;;;;;5089565;28;20802;-81
2022/05/15 13:25:16;;;;;;;13.80;12.30;;;15.60;99.90;;;;;;5090586;28;20400;-80
2022/05/15 13:27:46;;;;;;;13.00;11.55;;;15.50;99.90;;;;;;5090495;28;20376;-80
2022/05/15 13:30:21;;;;;;;14.48;12.90;;;15.40;99.90;;;;;;5090273;28;20418;-80
2022/05/15 13:32:52;;;;;;;12.70;11.40;;;15.40;99.90;;;;;;5090425;28;20732;-80
2022/05/15 13:35:19;;;;;;;14.38;12.40;;;15.30;99.90;;;;;;5090370;28;20381;-80
2022/05/15 13:37:52;;;;;;;14.50;13.00;;;15.30;99.90;;;;;;5090332;28;20373;-81
2022/05/15 13:43:28;;;;;;;13.15;11.85;;;15.20;99.90;;;;;;5090813;28;20414;-80
2022/05/15 13:46:31;;;;;;;15.10;13.50;;;15.10;99.90;;;;;;5090130;28;20372;-80